sensor_id;sensor_type;location;lat;lon;timestamp;P1;durP1;ratioP1;P2;durP2;ratioP2
63379;SDS011;53160;55.014;73.156;2023-02-01T00:01:29;52.40;;;41.20;;
63379;SDS011;53160;55.014;73.156;2023-02-01T00:03:55;46.20;;;34.80;;
63379;SDS011;53160;55.014;73.156;2023-02-01T00:06:21;38.80;;;28.40;;
63379;SDS011;53160;55.014;73.156;2023-02-01T00:08:53;43.20;;;27.80;;
63379;SDS011;53160;55.014;73.156;2023-02-01T00:11:24;47.20;;;38.20;;
63379;SDS011;53160;55.014;73.156;2023-02-01T00:14:00;35.00;;;21.40;;
63379;SDS011;53160;55.014;73.156;2023-02-01T00:16:28;41.20;;;34.00;;
63379;SDS011;53160;55.014;73.156;2023-02-01T00:18:59;46.20;;;37.20;;
63379;SDS011;53160;55.014;73.156;2023-02-01T00:21:35;49.60;;;37.80;;
63379;SDS011;53160;55.014;73.156;2023-02-01T00:24:01;42.80;;;33.40;;
63379;SDS011;53160;55.014;73.156;2023-02-01T00:29:00;47.00;;;39.60;;
63379;SDS011;53160;55.014;73.156;2023-02-01T00:31:26;55.40;;;42.40;;
63379;SDS011;53160;55.014;73.156;2023-02-01T00:33:52;51.40;;;37.80;;
63379;SDS011;53160;55.014;73.156;2023-02-01T00:36:23;46.00;;;39.20;;
63379;SDS011;53160;55.014;73.156;2023-02-01T00:38:54;56.40;;;43.80;;
63379;SDS011;53160;55.014;73.156;2023-02-01T00:41:30;47.00;;;36.60;;
63379;SDS011;53160;55.014;73.156;2023-02-01T00:43:57;51.80;;;39.00;;
63379;SDS011;53160;55.014;73.156;2023-02-01T00:46:25;47.60;;;35.20;;
63379;SDS011;53160;55.014;73.156;2023-02-01T00:49:01;31.60;;;23.60;;
63379;SDS011;53160;55.014;73.156;2023-02-01T00:51:38;47.40;;;36.40;;
63379;SDS011;53160;55.014;73.156;2023-02-01T00:54:05;42.60;;;32.00;;
63379;SDS011;53160;55.014;73.156;2023-02-01T00:56:31;57.40;;;44.40;;
63379;SDS011;53160;55.014;73.156;2023-02-01T00:58:58;60.20;;;47.00;;
63379;SDS011;53160;55.014;73.156;2023-02-01T01:01:35;69.00;;;42.60;;
63379;SDS011;53160;55.014;73.156;2023-02-01T01:04:01;60.20;;;48.00;;
63379;SDS011;53160;55.014;73.156;2023-02-01T01:06:31;61.00;;;45.20;;
63379;SDS011;53160;55.014;73.156;2023-02-01T01:08:59;58.20;;;47.60;;
63379;SDS011;53160;55.014;73.156;2023-02-01T01:11:31;67.60;;;50.60;;
63379;SDS011;53160;55.014;73.156;2023-02-01T01:14:01;71.20;;;49.40;;
63379;SDS011;53160;55.014;73.156;2023-02-01T01:16:28;68.20;;;46.00;;
63379;SDS011;53160;55.014;73.156;2023-02-01T01:18:55;70.80;;;51.80;;
63379;SDS011;53160;55.014;73.156;2023-02-01T01:21:22;60.20;;;45.00;;
63379;SDS011;53160;55.014;73.156;2023-02-01T01:23:54;61.20;;;45.60;;
63379;SDS011;53160;55.014;73.156;2023-02-01T01:26:31;71.80;;;51.00;;
63379;SDS011;53160;55.014;73.156;2023-02-01T01:28:57;59.20;;;44.60;;
63379;SDS011;53160;55.014;73.156;2023-02-01T01:31:24;64.80;;;45.80;;
63379;SDS011;53160;55.014;73.156;2023-02-01T01:33:52;39.00;;;37.60;;
63379;SDS011;53160;55.014;73.156;2023-02-01T01:36:28;69.40;;;49.80;;
63379;SDS011;53160;55.014;73.156;2023-02-01T01:38:55;59.20;;;48.00;;
63379;SDS011;53160;55.014;73.156;2023-02-01T01:41:30;59.40;;;47.80;;
63379;SDS011;53160;55.014;73.156;2023-02-01T01:44:02;54.20;;;35.00;;
63379;SDS011;53160;55.014;73.156;2023-02-01T01:46:30;65.60;;;47.80;;
63379;SDS011;53160;55.014;73.156;2023-02-01T01:49:04;62.60;;;48.80;;
63379;SDS011;53160;55.014;73.156;2023-02-01T01:51:32;70.40;;;48.20;;
63379;SDS011;53160;55.014;73.156;2023-02-01T01:54:09;68.40;;;44.20;;
63379;SDS011;53160;55.014;73.156;2023-02-01T01:56:37;68.40;;;48.20;;
63379;SDS011;53160;55.014;73.156;2023-02-01T01:59:04;62.40;;;46.40;;
63379;SDS011;53160;55.014;73.156;2023-02-01T02:01:36;65.60;;;50.40;;
63379;SDS011;53160;55.014;73.156;2023-02-01T02:04:02;70.00;;;52.00;;
63379;SDS011;53160;55.014;73.156;2023-02-01T02:06:45;67.25;;;48.50;;
63379;SDS011;53160;55.014;73.156;2023-02-01T02:09:14;61.00;;;44.80;;
63379;SDS011;53160;55.014;73.156;2023-02-01T02:11:40;51.00;;;47.60;;
63379;SDS011;53160;55.014;73.156;2023-02-01T02:14:07;67.80;;;51.00;;
63379;SDS011;53160;55.014;73.156;2023-02-01T02:16:39;68.00;;;52.20;;
63379;SDS011;53160;55.014;73.156;2023-02-01T02:19:38;64.60;;;51.80;;
63379;SDS011;53160;55.014;73.156;2023-02-01T02:27:10;60.20;;;49.60;;
63379;SDS011;53160;55.014;73.156;2023-02-01T02:35:05;74.50;;;55.00;;
63379;SDS011;53160;55.014;73.156;2023-02-01T02:48:44;71.25;;;54.00;;
63379;SDS011;53160;55.014;73.156;2023-02-01T02:51:23;64.50;;;40.25;;
63379;SDS011;53160;55.014;73.156;2023-02-01T02:54:21;67.00;;;48.75;;
63379;SDS011;53160;55.014;73.156;2023-02-01T02:57:17;72.80;;;51.80;;
63379;SDS011;53160;55.014;73.156;2023-02-01T03:00:14;73.50;;;51.75;;
63379;SDS011;53160;55.014;73.156;2023-02-01T03:03:10;72.50;;;51.50;;
63379;SDS011;53160;55.014;73.156;2023-02-01T03:05:54;75.50;;;54.50;;
63379;SDS011;53160;55.014;73.156;2023-02-01T03:08:30;143.25;;;102.00;;
63379;SDS011;53160;55.014;73.156;2023-02-01T03:16:16;78.00;;;53.25;;
63379;SDS011;53160;55.014;73.156;2023-02-01T03:21:33;83.75;;;58.50;;
63379;SDS011;53160;55.014;73.156;2023-02-01T03:24:15;74.25;;;59.00;;
63379;SDS011;53160;55.014;73.156;2023-02-01T03:26:45;76.75;;;52.00;;
63379;SDS011;53160;55.014;73.156;2023-02-01T03:29:17;75.25;;;54.50;;
63379;SDS011;53160;55.014;73.156;2023-02-01T03:31:49;78.50;;;53.75;;
63379;SDS011;53160;55.014;73.156;2023-02-01T03:34:26;83.00;;;56.00;;
63379;SDS011;53160;55.014;73.156;2023-02-01T03:37:12;62.00;;;34.50;;
63379;SDS011;53160;55.014;73.156;2023-02-01T03:40:01;75.00;;;53.00;;
63379;SDS011;53160;55.014;73.156;2023-02-01T03:42:34;84.00;;;58.00;;
63379;SDS011;53160;55.014;73.156;2023-02-01T03:47:37;78.75;;;54.50;;
63379;SDS011;53160;55.014;73.156;2023-02-01T03:50:17;91.75;;;62.25;;
63379;SDS011;53160;55.014;73.156;2023-02-01T03:52:51;85.00;;;60.25;;
63379;SDS011;53160;55.014;73.156;2023-02-01T03:55:29;77.25;;;57.00;;
63379;SDS011;53160;55.014;73.156;2023-02-01T04:00:33;98.75;;;67.25;;
63379;SDS011;53160;55.014;73.156;2023-02-01T04:02:59;80.75;;;59.75;;
63379;SDS011;53160;55.014;73.156;2023-02-01T04:05:25;81.00;;;55.50;;
63379;SDS011;53160;55.014;73.156;2023-02-01T04:07:59;89.25;;;59.75;;
63379;SDS011;53160;55.014;73.156;2023-02-01T04:10:25;85.75;;;60.25;;
63379;SDS011;53160;55.014;73.156;2023-02-01T04:12:52;86.00;;;60.25;;
63379;SDS011;53160;55.014;73.156;2023-02-01T04:15:18;78.00;;;54.50;;
63379;SDS011;53160;55.014;73.156;2023-02-01T04:17:44;91.25;;;65.00;;
63379;SDS011;53160;55.014;73.156;2023-02-01T04:20:10;96.25;;;65.25;;
63379;SDS011;53160;55.014;73.156;2023-02-01T04:22:36;94.00;;;67.25;;
63379;SDS011;53160;55.014;73.156;2023-02-01T04:25:07;87.00;;;55.75;;
63379;SDS011;53160;55.014;73.156;2023-02-01T04:27:34;80.00;;;61.00;;
63379;SDS011;53160;55.014;73.156;2023-02-01T04:30:05;108.00;;;75.25;;
63379;SDS011;53160;55.014;73.156;2023-02-01T04:32:41;88.50;;;59.50;;
63379;SDS011;53160;55.014;73.156;2023-02-01T04:35:12;92.25;;;61.00;;
63379;SDS011;53160;55.014;73.156;2023-02-01T04:37:49;93.00;;;65.75;;
63379;SDS011;53160;55.014;73.156;2023-02-01T04:40:20;96.50;;;69.00;;
63379;SDS011;53160;55.014;73.156;2023-02-01T04:42:46;80.25;;;59.75;;
63379;SDS011;53160;55.014;73.156;2023-02-01T04:45:18;87.00;;;61.00;;
63379;SDS011;53160;55.014;73.156;2023-02-01T04:47:44;70.75;;;55.00;;
63379;SDS011;53160;55.014;73.156;2023-02-01T04:50:11;81.00;;;55.75;;
63379;SDS011;53160;55.014;73.156;2023-02-01T04:52:37;81.80;;;53.40;;
63379;SDS011;53160;55.014;73.156;2023-02-01T04:55:03;84.50;;;59.75;;
63379;SDS011;53160;55.014;73.156;2023-02-01T04:57:37;87.50;;;61.00;;
63379;SDS011;53160;55.014;73.156;2023-02-01T05:00:04;74.20;;;50.80;;
63379;SDS011;53160;55.014;73.156;2023-02-01T05:02:31;43.80;;;31.80;;
63379;SDS011;53160;55.014;73.156;2023-02-01T05:04:58;84.75;;;59.75;;
63379;SDS011;53160;55.014;73.156;2023-02-01T05:07:24;86.00;;;63.00;;
63379;SDS011;53160;55.014;73.156;2023-02-01T05:10:00;85.00;;;60.00;;
63379;SDS011;53160;55.014;73.156;2023-02-01T05:12:31;83.80;;;57.60;;
63379;SDS011;53160;55.014;73.156;2023-02-01T05:15:16;73.20;;;54.60;;
63379;SDS011;53160;55.014;73.156;2023-02-01T05:17:43;52.00;;;38.60;;
63379;SDS011;53160;55.014;73.156;2023-02-01T05:20:09;75.20;;;55.00;;
63379;SDS011;53160;55.014;73.156;2023-02-01T05:22:35;79.60;;;57.00;;
63379;SDS011;53160;55.014;73.156;2023-02-01T05:25:07;70.60;;;52.80;;
63379;SDS011;53160;55.014;73.156;2023-02-01T05:27:33;57.20;;;49.40;;
63379;SDS011;53160;55.014;73.156;2023-02-01T05:29:59;77.00;;;55.40;;
63379;SDS011;53160;55.014;73.156;2023-02-01T05:32:31;74.20;;;57.00;;
63379;SDS011;53160;55.014;73.156;2023-02-01T05:35:04;73.40;;;57.40;;
63379;SDS011;53160;55.014;73.156;2023-02-01T05:37:30;60.20;;;48.20;;
63379;SDS011;53160;55.014;73.156;2023-02-01T05:39:56;75.00;;;54.40;;
63379;SDS011;53160;55.014;73.156;2023-02-01T05:42:22;70.80;;;56.60;;
63379;SDS011;53160;55.014;73.156;2023-02-01T05:44:49;82.20;;;58.40;;
63379;SDS011;53160;55.014;73.156;2023-02-01T05:47:15;70.00;;;50.40;;
63379;SDS011;53160;55.014;73.156;2023-02-01T05:49:41;78.20;;;55.20;;
63379;SDS011;53160;55.014;73.156;2023-02-01T05:52:07;68.60;;;50.40;;
63379;SDS011;53160;55.014;73.156;2023-02-01T05:54:38;82.40;;;62.20;;
63379;SDS011;53160;55.014;73.156;2023-02-01T05:57:04;61.60;;;44.80;;
63379;SDS011;53160;55.014;73.156;2023-02-01T05:59:30;75.00;;;53.00;;
63379;SDS011;53160;55.014;73.156;2023-02-01T06:01:57;67.60;;;44.20;;
63379;SDS011;53160;55.014;73.156;2023-02-01T06:04:28;69.40;;;51.80;;
63379;SDS011;53160;55.014;73.156;2023-02-01T06:06:54;58.80;;;48.00;;
63379;SDS011;53160;55.014;73.156;2023-02-01T06:09:32;68.60;;;50.20;;
63379;SDS011;53160;55.014;73.156;2023-02-01T06:11:58;78.60;;;60.40;;
63379;SDS011;53160;55.014;73.156;2023-02-01T06:14:25;52.20;;;42.80;;
63379;SDS011;53160;55.014;73.156;2023-02-01T06:16:52;60.20;;;51.80;;
63379;SDS011;53160;55.014;73.156;2023-02-01T06:19:18;83.40;;;57.40;;
63379;SDS011;53160;55.014;73.156;2023-02-01T06:21:49;73.40;;;55.80;;
63379;SDS011;53160;55.014;73.156;2023-02-01T06:24:16;70.00;;;51.80;;
63379;SDS011;53160;55.014;73.156;2023-02-01T06:26:42;78.40;;;54.00;;
63379;SDS011;53160;55.014;73.156;2023-02-01T06:29:11;73.20;;;50.60;;
63379;SDS011;53160;55.014;73.156;2023-02-01T06:31:39;72.80;;;51.00;;
63379;SDS011;53160;55.014;73.156;2023-02-01T06:34:06;76.20;;;52.80;;
63379;SDS011;53160;55.014;73.156;2023-02-01T06:36:32;88.60;;;64.60;;
63379;SDS011;53160;55.014;73.156;2023-02-01T06:38:59;72.60;;;53.60;;
63379;SDS011;53160;55.014;73.156;2023-02-01T06:41:31;77.40;;;58.00;;
63379;SDS011;53160;55.014;73.156;2023-02-01T06:43:57;78.20;;;57.00;;
63379;SDS011;53160;55.014;73.156;2023-02-01T06:46:23;49.20;;;46.00;;
63379;SDS011;53160;55.014;73.156;2023-02-01T06:48:49;74.40;;;54.00;;
63379;SDS011;53160;55.014;73.156;2023-02-01T06:51:22;67.40;;;49.60;;
63379;SDS011;53160;55.014;73.156;2023-02-01T06:53:49;72.00;;;49.40;;
63379;SDS011;53160;55.014;73.156;2023-02-01T06:56:15;53.60;;;39.40;;
63379;SDS011;53160;55.014;73.156;2023-02-01T06:58:44;69.80;;;49.40;;
63379;SDS011;53160;55.014;73.156;2023-02-01T07:01:17;74.80;;;48.80;;
63379;SDS011;53160;55.014;73.156;2023-02-01T07:03:46;74.40;;;51.40;;
63379;SDS011;53160;55.014;73.156;2023-02-01T07:06:13;70.00;;;52.80;;
63379;SDS011;53160;55.014;73.156;2023-02-01T07:08:39;68.80;;;51.40;;
63379;SDS011;53160;55.014;73.156;2023-02-01T07:11:16;60.80;;;47.20;;
63379;SDS011;53160;55.014;73.156;2023-02-01T07:13:42;55.20;;;47.20;;
63379;SDS011;53160;55.014;73.156;2023-02-01T07:16:14;60.20;;;46.80;;
63379;SDS011;53160;55.014;73.156;2023-02-01T07:18:42;68.80;;;55.60;;
63379;SDS011;53160;55.014;73.156;2023-02-01T07:21:13;61.80;;;51.00;;
63379;SDS011;53160;55.014;73.156;2023-02-01T07:23:40;70.60;;;49.80;;
63379;SDS011;53160;55.014;73.156;2023-02-01T07:26:16;66.60;;;48.00;;
63379;SDS011;53160;55.014;73.156;2023-02-01T07:28:42;50.80;;;42.40;;
63379;SDS011;53160;55.014;73.156;2023-02-01T07:31:10;72.40;;;55.00;;
63379;SDS011;53160;55.014;73.156;2023-02-01T07:33:42;50.00;;;37.40;;
63379;SDS011;53160;55.014;73.156;2023-02-01T07:36:11;67.80;;;52.40;;
63379;SDS011;53160;55.014;73.156;2023-02-01T07:38:38;76.00;;;54.80;;
63379;SDS011;53160;55.014;73.156;2023-02-01T07:41:05;71.60;;;50.00;;
63379;SDS011;53160;55.014;73.156;2023-02-01T07:43:36;70.80;;;53.20;;
63379;SDS011;53160;55.014;73.156;2023-02-01T07:46:09;75.80;;;55.80;;
63379;SDS011;53160;55.014;73.156;2023-02-01T07:48:36;70.40;;;52.00;;
63379;SDS011;53160;55.014;73.156;2023-02-01T07:51:03;73.60;;;57.80;;
63379;SDS011;53160;55.014;73.156;2023-02-01T07:53:30;69.20;;;53.20;;
63379;SDS011;53160;55.014;73.156;2023-02-01T07:55:59;59.20;;;43.80;;
63379;SDS011;53160;55.014;73.156;2023-02-01T07:58:26;63.20;;;48.80;;
63379;SDS011;53160;55.014;73.156;2023-02-01T08:00:53;77.60;;;57.00;;
63379;SDS011;53160;55.014;73.156;2023-02-01T08:03:38;65.20;;;52.60;;
63379;SDS011;53160;55.014;73.156;2023-02-01T08:06:04;66.40;;;48.00;;
63379;SDS011;53160;55.014;73.156;2023-02-01T08:08:30;71.20;;;51.60;;
63379;SDS011;53160;55.014;73.156;2023-02-01T08:10:57;80.60;;;58.40;;
63379;SDS011;53160;55.014;73.156;2023-02-01T08:13:24;71.00;;;46.00;;
63379;SDS011;53160;55.014;73.156;2023-02-01T08:15:50;58.00;;;45.20;;
63379;SDS011;53160;55.014;73.156;2023-02-01T08:18:17;52.60;;;40.40;;
63379;SDS011;53160;55.014;73.156;2023-02-01T08:20:48;69.00;;;48.00;;
63379;SDS011;53160;55.014;73.156;2023-02-01T08:23:14;63.60;;;46.00;;
63379;SDS011;53160;55.014;73.156;2023-02-01T08:25:41;73.40;;;52.80;;
63379;SDS011;53160;55.014;73.156;2023-02-01T08:28:07;71.20;;;52.40;;
63379;SDS011;53160;55.014;73.156;2023-02-01T08:30:33;69.20;;;54.20;;
63379;SDS011;53160;55.014;73.156;2023-02-01T08:33:05;78.60;;;59.80;;
63379;SDS011;53160;55.014;73.156;2023-02-01T08:35:35;76.00;;;57.60;;
63379;SDS011;53160;55.014;73.156;2023-02-01T08:38:01;77.40;;;58.20;;
63379;SDS011;53160;55.014;73.156;2023-02-01T08:40:32;73.80;;;53.60;;
63379;SDS011;53160;55.014;73.156;2023-02-01T08:42:59;79.00;;;58.40;;
63379;SDS011;53160;55.014;73.156;2023-02-01T08:45:31;39.00;;;39.00;;
63379;SDS011;53160;55.014;73.156;2023-02-01T08:47:57;82.00;;;58.40;;
63379;SDS011;53160;55.014;73.156;2023-02-01T08:50:24;53.60;;;46.80;;
63379;SDS011;53160;55.014;73.156;2023-02-01T08:52:50;75.40;;;58.40;;
63379;SDS011;53160;55.014;73.156;2023-02-01T08:55:17;64.40;;;51.80;;
63379;SDS011;53160;55.014;73.156;2023-02-01T08:57:43;62.60;;;50.00;;
63379;SDS011;53160;55.014;73.156;2023-02-01T09:00:14;61.80;;;47.40;;
63379;SDS011;53160;55.014;73.156;2023-02-01T09:02:41;47.20;;;40.00;;
63379;SDS011;53160;55.014;73.156;2023-02-01T09:05:12;64.80;;;50.20;;
63379;SDS011;53160;55.014;73.156;2023-02-01T09:07:46;63.60;;;45.00;;
63379;SDS011;53160;55.014;73.156;2023-02-01T09:10:12;59.00;;;45.80;;
63379;SDS011;53160;55.014;73.156;2023-02-01T09:12:38;69.60;;;56.20;;
63379;SDS011;53160;55.014;73.156;2023-02-01T09:15:05;54.80;;;44.60;;
63379;SDS011;53160;55.014;73.156;2023-02-01T09:17:32;51.60;;;40.20;;
63379;SDS011;53160;55.014;73.156;2023-02-01T09:20:03;47.80;;;40.20;;
63379;SDS011;53160;55.014;73.156;2023-02-01T09:22:30;50.40;;;39.80;;
63379;SDS011;53160;55.014;73.156;2023-02-01T09:24:56;36.60;;;30.00;;
63379;SDS011;53160;55.014;73.156;2023-02-01T09:27:22;55.40;;;42.80;;
63379;SDS011;53160;55.014;73.156;2023-02-01T09:29:49;48.60;;;40.60;;
63379;SDS011;53160;55.014;73.156;2023-02-01T09:32:21;48.00;;;39.00;;
63379;SDS011;53160;55.014;73.156;2023-02-01T09:34:53;49.50;;;39.00;;
63379;SDS011;53160;55.014;73.156;2023-02-01T09:37:19;48.80;;;41.80;;
63379;SDS011;53160;55.014;73.156;2023-02-01T09:39:46;47.80;;;41.20;;
63379;SDS011;53160;55.014;73.156;2023-02-01T09:45:18;45.20;;;40.00;;
63379;SDS011;53160;55.014;73.156;2023-02-01T09:47:47;54.20;;;42.80;;
63379;SDS011;53160;55.014;73.156;2023-02-01T09:50:17;48.80;;;39.20;;
63379;SDS011;53160;55.014;73.156;2023-02-01T09:52:59;52.00;;;43.60;;
63379;SDS011;53160;55.014;73.156;2023-02-01T09:58:52;64.20;;;50.00;;
63379;SDS011;53160;55.014;73.156;2023-02-01T10:01:03;48.80;;;42.20;;
63379;SDS011;53160;55.014;73.156;2023-02-01T10:03:31;59.00;;;46.40;;
63379;SDS011;53160;55.014;73.156;2023-02-01T10:11:32;51.40;;;43.20;;
63379;SDS011;53160;55.014;73.156;2023-02-01T10:14:20;54.60;;;42.60;;
63379;SDS011;53160;55.014;73.156;2023-02-01T10:19:49;67.00;;;52.80;;
63379;SDS011;53160;55.014;73.156;2023-02-01T10:22:42;61.40;;;47.00;;
63379;SDS011;53160;55.014;73.156;2023-02-01T10:25:13;70.40;;;55.80;;
63379;SDS011;53160;55.014;73.156;2023-02-01T10:27:45;72.60;;;56.40;;
63379;SDS011;53160;55.014;73.156;2023-02-01T10:30:19;75.40;;;54.20;;
63379;SDS011;53160;55.014;73.156;2023-02-01T10:32:47;56.40;;;48.20;;
63379;SDS011;53160;55.014;73.156;2023-02-01T10:35:17;74.00;;;58.20;;
63379;SDS011;53160;55.014;73.156;2023-02-01T10:37:43;78.60;;;57.40;;
63379;SDS011;53160;55.014;73.156;2023-02-01T10:42:45;63.00;;;48.00;;
63379;SDS011;53160;55.014;73.156;2023-02-01T10:45:23;76.40;;;58.80;;
63379;SDS011;53160;55.014;73.156;2023-02-01T10:47:51;70.60;;;56.40;;
63379;SDS011;53160;55.014;73.156;2023-02-01T10:53:00;71.20;;;56.80;;
63379;SDS011;53160;55.014;73.156;2023-02-01T10:55:37;66.40;;;52.00;;
63379;SDS011;53160;55.014;73.156;2023-02-01T10:58:06;69.80;;;54.40;;
63379;SDS011;53160;55.014;73.156;2023-02-01T11:00:47;63.00;;;48.20;;
63379;SDS011;53160;55.014;73.156;2023-02-01T11:03:30;64.80;;;51.00;;
63379;SDS011;53160;55.014;73.156;2023-02-01T11:05:57;62.20;;;48.00;;
63379;SDS011;53160;55.014;73.156;2023-02-01T11:08:24;56.20;;;43.00;;
63379;SDS011;53160;55.014;73.156;2023-02-01T11:11:02;69.40;;;51.20;;
63379;SDS011;53160;55.014;73.156;2023-02-01T11:13:32;74.20;;;59.00;;
63379;SDS011;53160;55.014;73.156;2023-02-01T11:16:02;64.40;;;49.80;;
63379;SDS011;53160;55.014;73.156;2023-02-01T11:18:30;68.00;;;54.20;;
63379;SDS011;53160;55.014;73.156;2023-02-01T11:20:56;65.20;;;44.20;;
63379;SDS011;53160;55.014;73.156;2023-02-01T11:23:24;62.60;;;54.20;;
63379;SDS011;53160;55.014;73.156;2023-02-01T11:26:07;68.20;;;52.20;;
63379;SDS011;53160;55.014;73.156;2023-02-01T11:28:35;72.80;;;57.00;;
63379;SDS011;53160;55.014;73.156;2023-02-01T11:31:09;175.25;;;146.25;;
63379;SDS011;53160;55.014;73.156;2023-02-01T11:33:50;81.60;;;63.60;;
63379;SDS011;53160;55.014;73.156;2023-02-01T11:36:21;78.40;;;60.80;;
63379;SDS011;53160;55.014;73.156;2023-02-01T11:38:52;63.40;;;45.20;;
63379;SDS011;53160;55.014;73.156;2023-02-01T11:41:24;68.40;;;50.00;;
63379;SDS011;53160;55.014;73.156;2023-02-01T11:43:53;82.40;;;63.20;;
63379;SDS011;53160;55.014;73.156;2023-02-01T11:46:19;79.00;;;57.40;;
63379;SDS011;53160;55.014;73.156;2023-02-01T11:49:20;79.60;;;58.40;;
63379;SDS011;53160;55.014;73.156;2023-02-01T11:54:26;78.20;;;57.80;;
63379;SDS011;53160;55.014;73.156;2023-02-01T11:57:04;72.00;;;53.80;;
63379;SDS011;53160;55.014;73.156;2023-02-01T12:07:54;45.20;;;40.60;;
63379;SDS011;53160;55.014;73.156;2023-02-01T12:15:50;65.40;;;45.40;;
63379;SDS011;53160;55.014;73.156;2023-02-01T12:29:13;80.00;;;62.80;;
63379;SDS011;53160;55.014;73.156;2023-02-01T12:39:38;106.50;;;75.25;;
63379;SDS011;53160;55.014;73.156;2023-02-01T12:42:16;99.25;;;71.00;;
63379;SDS011;53160;55.014;73.156;2023-02-01T12:45:01;95.50;;;73.25;;
63379;SDS011;53160;55.014;73.156;2023-02-01T12:50:11;90.00;;;63.50;;
63379;SDS011;53160;55.014;73.156;2023-02-01T12:52:42;89.75;;;65.75;;
63379;SDS011;53160;55.014;73.156;2023-02-01T12:57:58;96.00;;;63.75;;
63379;SDS011;53160;55.014;73.156;2023-02-01T13:00:30;135.75;;;95.75;;
63379;SDS011;53160;55.014;73.156;2023-02-01T13:05:27;115.25;;;82.25;;
63379;SDS011;53160;55.014;73.156;2023-02-01T13:08:01;114.25;;;75.50;;
63379;SDS011;53160;55.014;73.156;2023-02-01T13:13:10;115.25;;;79.25;;
63379;SDS011;53160;55.014;73.156;2023-02-01T13:18:39;123.00;;;85.75;;
63379;SDS011;53160;55.014;73.156;2023-02-01T13:21:14;116.00;;;80.50;;
63379;SDS011;53160;55.014;73.156;2023-02-01T13:23:43;106.75;;;77.25;;
63379;SDS011;53160;55.014;73.156;2023-02-01T13:26:20;108.75;;;71.50;;
63379;SDS011;53160;55.014;73.156;2023-02-01T13:28:47;104.75;;;73.75;;
63379;SDS011;53160;55.014;73.156;2023-02-01T13:42:25;108.00;;;77.50;;
63379;SDS011;53160;55.014;73.156;2023-02-01T13:44:50;94.20;;;61.80;;
63379;SDS011;53160;55.014;73.156;2023-02-01T13:50:02;99.00;;;69.20;;
63379;SDS011;53160;55.014;73.156;2023-02-01T13:57:44;92.00;;;68.80;;
63379;SDS011;53160;55.014;73.156;2023-02-01T14:00:32;86.60;;;61.40;;
63379;SDS011;53160;55.014;73.156;2023-02-01T14:08:36;88.40;;;60.00;;
63379;SDS011;53160;55.014;73.156;2023-02-01T14:11:03;92.20;;;63.00;;
63379;SDS011;53160;55.014;73.156;2023-02-01T14:13:39;88.20;;;65.60;;
63379;SDS011;53160;55.014;73.156;2023-02-01T14:16:15;92.00;;;66.80;;
63379;SDS011;53160;55.014;73.156;2023-02-01T14:21:25;79.00;;;58.60;;
63379;SDS011;53160;55.014;73.156;2023-02-01T14:26:21;79.20;;;57.80;;
63379;SDS011;53160;55.014;73.156;2023-02-01T14:28:56;61.40;;;46.40;;
63379;SDS011;53160;55.014;73.156;2023-02-01T14:34:17;77.00;;;59.20;;
63379;SDS011;53160;55.014;73.156;2023-02-01T14:37:05;80.40;;;62.40;;
63379;SDS011;53160;55.014;73.156;2023-02-01T14:44:54;81.80;;;60.00;;
63379;SDS011;53160;55.014;73.156;2023-02-01T14:49:57;85.40;;;60.20;;
63379;SDS011;53160;55.014;73.156;2023-02-01T14:53:21;75.40;;;54.20;;
63379;SDS011;53160;55.014;73.156;2023-02-01T14:58:04;79.40;;;62.20;;
63379;SDS011;53160;55.014;73.156;2023-02-01T15:00:36;87.20;;;63.80;;
63379;SDS011;53160;55.014;73.156;2023-02-01T15:05:39;79.20;;;57.20;;
63379;SDS011;53160;55.014;73.156;2023-02-01T15:08:19;75.00;;;55.40;;
63379;SDS011;53160;55.014;73.156;2023-02-01T15:10:48;77.00;;;60.00;;
63379;SDS011;53160;55.014;73.156;2023-02-01T15:13:22;81.00;;;60.00;;
63379;SDS011;53160;55.014;73.156;2023-02-01T15:16:04;75.40;;;57.80;;
63379;SDS011;53160;55.014;73.156;2023-02-01T15:18:41;79.60;;;60.60;;
63379;SDS011;53160;55.014;73.156;2023-02-01T15:21:20;83.60;;;63.80;;
63379;SDS011;53160;55.014;73.156;2023-02-01T15:23:47;81.00;;;58.60;;
63379;SDS011;53160;55.014;73.156;2023-02-01T15:26:28;81.00;;;60.20;;
63379;SDS011;53160;55.014;73.156;2023-02-01T15:29:04;71.80;;;57.60;;
63379;SDS011;53160;55.014;73.156;2023-02-01T15:31:35;64.20;;;51.60;;
63379;SDS011;53160;55.014;73.156;2023-02-01T15:34:07;77.80;;;54.00;;
63379;SDS011;53160;55.014;73.156;2023-02-01T15:36:34;83.80;;;59.60;;
63379;SDS011;53160;55.014;73.156;2023-02-01T15:41:42;83.40;;;64.20;;
63379;SDS011;53160;55.014;73.156;2023-02-01T15:47:15;57.60;;;34.00;;
63379;SDS011;53160;55.014;73.156;2023-02-01T15:49:49;79.80;;;57.60;;
63379;SDS011;53160;55.014;73.156;2023-02-01T15:55:05;81.00;;;56.40;;
63379;SDS011;53160;55.014;73.156;2023-02-01T15:57:38;90.00;;;64.40;;
63379;SDS011;53160;55.014;73.156;2023-02-01T16:00:06;82.40;;;64.20;;
63379;SDS011;53160;55.014;73.156;2023-02-01T16:02:42;89.00;;;58.60;;
63379;SDS011;53160;55.014;73.156;2023-02-01T16:05:26;75.20;;;58.40;;
63379;SDS011;53160;55.014;73.156;2023-02-01T16:08:31;96.20;;;69.60;;
63379;SDS011;53160;55.014;73.156;2023-02-01T16:11:12;97.00;;;69.60;;
63379;SDS011;53160;55.014;73.156;2023-02-01T16:13:40;93.40;;;68.60;;
63379;SDS011;53160;55.014;73.156;2023-02-01T16:16:07;86.40;;;64.00;;
63379;SDS011;53160;55.014;73.156;2023-02-01T16:18:42;91.60;;;63.20;;
63379;SDS011;53160;55.014;73.156;2023-02-01T16:21:19;96.80;;;70.60;;
63379;SDS011;53160;55.014;73.156;2023-02-01T16:23:51;98.25;;;72.00;;
63379;SDS011;53160;55.014;73.156;2023-02-01T16:26:20;97.60;;;67.60;;
63379;SDS011;53160;55.014;73.156;2023-02-01T16:28:47;84.00;;;59.20;;
63379;SDS011;53160;55.014;73.156;2023-02-01T16:31:14;102.25;;;71.00;;
63379;SDS011;53160;55.014;73.156;2023-02-01T16:33:52;95.80;;;66.00;;
63379;SDS011;53160;55.014;73.156;2023-02-01T16:36:28;94.40;;;64.20;;
63379;SDS011;53160;55.014;73.156;2023-02-01T16:38:54;83.00;;;66.60;;
63379;SDS011;53160;55.014;73.156;2023-02-01T16:41:21;88.60;;;64.80;;
63379;SDS011;53160;55.014;73.156;2023-02-01T16:43:51;84.00;;;64.00;;
63379;SDS011;53160;55.014;73.156;2023-02-01T16:46:19;58.80;;;39.80;;
63379;SDS011;53160;55.014;73.156;2023-02-01T16:48:51;98.20;;;67.80;;
63379;SDS011;53160;55.014;73.156;2023-02-01T16:51:17;103.00;;;68.60;;
63379;SDS011;53160;55.014;73.156;2023-02-01T16:53:48;97.25;;;70.00;;
63379;SDS011;53160;55.014;73.156;2023-02-01T16:56:16;80.20;;;63.60;;
63379;SDS011;53160;55.014;73.156;2023-02-01T16:58:43;95.40;;;68.60;;
63379;SDS011;53160;55.014;73.156;2023-02-01T17:01:19;90.00;;;66.40;;
63379;SDS011;53160;55.014;73.156;2023-02-01T17:03:46;101.75;;;66.25;;
63379;SDS011;53160;55.014;73.156;2023-02-01T17:06:13;95.50;;;67.25;;
63379;SDS011;53160;55.014;73.156;2023-02-01T17:08:55;102.80;;;71.80;;
63379;SDS011;53160;55.014;73.156;2023-02-01T17:11:23;104.00;;;71.50;;